createdAt,value
2023-11-07T00:01:35.117Z,101640.88
2023-11-07T00:04:03.936Z,101643.97
2023-11-07T00:06:31.407Z,101641.88
2023-11-07T00:08:58.760Z,101635.06
2023-11-07T00:11:26.194Z,101630.91
2023-11-07T00:13:53.404Z,101624.56
2023-11-07T00:16:20.669Z,101630.22
2023-11-07T00:18:48.681Z,101620.16
2023-11-07T00:21:16.007Z,101629.91
2023-11-07T00:23:43.276Z,101634.63
2023-11-07T00:26:10.894Z,101635.28
2023-11-07T00:28:40.085Z,101638.34
2023-11-07T00:31:07.768Z,101636.06
2023-11-07T00:33:35.192Z,101638.34
2023-11-07T00:36:02.639Z,101631.22
2023-11-07T00:38:30.611Z,101629.13
2023-11-07T00:40:58.164Z,101635.44
2023-11-07T00:43:25.496Z,101634.63
2023-11-07T00:45:54.524Z,101639.78
2023-11-07T00:48:21.961Z,101634.63
2023-11-07T00:50:49.489Z,101636.56
2023-11-07T00:53:16.876Z,101644.03
2023-11-07T00:55:44.215Z,101646.78
2023-11-07T00:58:11.422Z,101643.53
2023-11-07T01:00:38.721Z,101642.72
2023-11-07T01:03:06.076Z,101643.03
2023-11-07T01:05:34.069Z,101645.34
2023-11-07T01:08:02.262Z,101638.84
2023-11-07T01:10:29.649Z,101642.44
2023-11-07T01:12:57.288Z,101645.19
2023-11-07T01:15:24.645Z,101639.69
2023-11-07T01:17:52.129Z,101639.69
2023-11-07T01:20:20.247Z,101636.13
2023-11-07T01:22:47.645Z,101643.06
2023-11-07T01:25:14.884Z,101637.91
2023-11-07T01:27:42.413Z,101629.97
2023-11-07T01:30:10.570Z,101637.91
2023-11-07T01:32:38.906Z,101637.56
2023-11-07T01:35:06.671Z,101643.56
2023-11-07T01:37:34.065Z,101628.50
2023-11-07T01:40:01.277Z,101629.81
2023-11-07T01:42:28.770Z,101632.41
2023-11-07T01:44:55.983Z,101631.56
2023-11-07T01:47:27.102Z,101632.06
2023-11-07T01:49:54.946Z,101628.16
2023-11-07T01:52:22.592Z,101627.38
2023-11-07T01:54:54.982Z,101621.06
2023-11-07T01:57:23.012Z,101623.66
2023-11-07T01:59:51.130Z,101616.38
2023-11-07T02:02:20.831Z,101611.19
2023-11-07T02:04:49.049Z,101611.53
2023-11-07T02:07:17.530Z,101619.13
2023-11-07T02:09:48.499Z,101610.88
2023-11-07T02:12:15.829Z,101604.88
2023-11-07T02:14:43.296Z,101601.34
2023-11-07T02:17:10.744Z,101598.25
2023-11-07T02:19:38.026Z,101602.63
2023-11-07T02:22:09.825Z,101604.25
2023-11-07T02:24:37.290Z,101616.22
2023-11-07T02:27:05.386Z,101615.88
2023-11-07T02:29:33.356Z,101611.38
2023-11-07T02:32:00.747Z,101602.47
2023-11-07T02:34:28.158Z,101603.28
2023-11-07T02:36:55.546Z,101607.66
2023-11-07T02:39:22.832Z,101608.78
2023-11-07T02:41:50.169Z,101600.69
2023-11-07T02:44:17.719Z,101605.72
2023-11-07T02:46:47.095Z,101610.09
2023-11-07T02:49:15.172Z,101608.78
2023-11-07T02:51:42.484Z,101613.00
2023-11-07T02:54:09.889Z,101610.25
2023-11-07T02:56:37.190Z,101613.31
2023-11-07T02:59:05.419Z,101616.53
2023-11-07T03:01:32.756Z,101610.75
2023-11-07T03:04:00.171Z,101609.91
2023-11-07T03:06:27.725Z,101619.00
2023-11-07T03:08:55.012Z,101613.97
2023-11-07T03:11:22.534Z,101608.47
2023-11-07T03:13:49.887Z,101611.53
2023-11-07T03:16:17.260Z,101615.09
2023-11-07T03:18:44.908Z,101619.00
2023-11-07T03:21:12.703Z,101616.25
2023-11-07T03:23:40.086Z,101617.69
2023-11-07T03:26:08.872Z,101624.00
2023-11-07T03:28:36.152Z,101627.38
2023-11-07T03:31:03.454Z,101634.50
2023-11-07T03:33:31.291Z,101617.03
2023-11-07T03:35:58.626Z,101609.59
2023-11-07T03:38:26.134Z,101601.19
2023-11-07T03:40:53.311Z,101612.97
2023-11-07T03:43:21.993Z,101612.97
2023-11-07T03:45:49.502Z,101618.00
2023-11-07T03:48:16.768Z,101615.38
2023-11-07T03:50:44.707Z,101611.31
2023-11-07T03:53:12.308Z,101612.47
2023-11-07T03:55:39.704Z,101605.34
2023-11-07T03:58:06.974Z,101600.31
2023-11-07T04:00:34.217Z,101596.31
2023-11-07T04:03:01.891Z,101595.16
2023-11-07T04:05:29.600Z,101602.28
2023-11-07T04:07:57.968Z,101601.47
2023-11-07T04:10:25.273Z,101603.06
2023-11-07T04:12:52.905Z,101602.59
2023-11-07T04:15:22.243Z,101598.56
2023-11-07T04:17:52.356Z,101600.50
2023-11-07T04:20:19.632Z,101593.38
2023-11-07T04:22:48.556Z,101595.81
2023-11-07T04:25:16.701Z,101592.09
2023-11-07T04:27:46.283Z,101588.53
2023-11-07T04:30:14.932Z,101597.25
2023-11-07T04:32:42.566Z,101600.34
2023-11-07T04:35:13.455Z,101607.78
2023-11-07T04:37:41.258Z,101597.88
2023-11-07T04:40:08.967Z,101596.78
2023-11-07T04:42:36.401Z,101606.13
2023-11-07T04:45:03.976Z,101604.53
2023-11-07T04:47:31.422Z,101602.09
2023-11-07T04:50:00.582Z,101596.59
2023-11-07T04:52:27.899Z,101597.25
2023-11-07T04:54:55.263Z,101606.63
2023-11-07T04:57:24.141Z,101611.47
2023-11-07T04:59:52.116Z,101604.66
2023-11-07T05:02:19.795Z,101600.63
2023-11-07T05:04:47.594Z,101608.06
2023-11-07T05:07:17.441Z,101614.69
2023-11-07T05:09:44.757Z,101614.34
2023-11-07T05:12:15.452Z,101613.56
2023-11-07T05:14:42.973Z,101621.00
2023-11-07T05:17:10.321Z,101613.69
2023-11-07T05:19:38.060Z,101621.75
2023-11-07T05:22:05.428Z,101619.81
2023-11-07T05:24:32.683Z,101619.00
2023-11-07T05:27:01.908Z,101620.16
2023-11-07T05:29:29.920Z,101621.75
2023-11-07T05:31:57.328Z,101618.53
2023-11-07T05:34:24.586Z,101624.34
2023-11-07T05:36:52.715Z,101639.69
2023-11-07T05:39:19.876Z,101633.09
2023-11-07T05:41:47.361Z,101632.75
2023-11-07T05:44:17.267Z,101631.47
2023-11-07T05:46:44.749Z,101642.16
2023-11-07T05:49:12.353Z,101637.00
2023-11-07T05:51:39.878Z,101646.59
2023-11-07T05:54:09.071Z,101646.47
2023-11-07T05:56:37.467Z,101651.16
2023-11-07T05:59:05.290Z,101647.78
2023-11-07T06:01:32.656Z,101654.56
2023-11-07T06:04:00.068Z,101661.31
2023-11-07T06:06:27.470Z,101665.84
2023-11-07T06:08:55.091Z,101674.03
2023-11-07T06:11:22.709Z,101675.59
2023-11-07T06:13:49.978Z,101688.47
2023-11-07T06:16:17.372Z,101690.03
2023-11-07T06:18:45.539Z,101689.66
2023-11-07T06:21:13.234Z,101686.53
2023-11-07T06:23:41.999Z,101707.28
2023-11-07T06:26:09.598Z,101706.25
2023-11-07T06:28:37.991Z,101707.88
2023-11-07T06:31:05.654Z,101707.22
2023-11-07T06:33:33.243Z,101717.03
2023-11-07T06:36:00.578Z,101716.19
2023-11-07T06:38:29.249Z,101720.16
2023-11-07T06:40:57.265Z,101711.34
2023-11-07T06:43:24.602Z,101711.53
2023-11-07T06:45:51.882Z,101716.78
2023-11-07T06:48:19.316Z,101717.88
2023-11-07T06:50:47.635Z,101710.91
2023-11-07T06:53:14.879Z,101717.03
2023-11-07T06:55:42.829Z,101723.69
2023-11-07T06:58:10.681Z,101729.38
2023-11-07T07:00:40.258Z,101730.69
2023-11-07T07:03:08.126Z,101741.50
2023-11-07T07:05:35.705Z,101751.88
2023-11-07T07:08:03.156Z,101754.63
2023-11-07T07:10:30.497Z,101751.91
2023-11-07T07:12:57.820Z,101751.00
2023-11-07T07:15:25.192Z,101763.66
2023-11-07T07:17:52.847Z,101756.75
2023-11-07T07:20:20.400Z,101763.22
2023-11-07T07:22:48.475Z,101761.63
2023-11-07T07:25:22.152Z,101763.13
2023-11-07T07:27:50.111Z,101757.50
2023-11-07T07:30:23.096Z,101767.88
2023-11-07T07:32:52.767Z,101768.44
2023-11-07T07:35:22.487Z,101768.63
2023-11-07T07:37:53.533Z,101768.31
2023-11-07T07:40:30.890Z,101760.69
2023-11-07T07:43:10.505Z,101757.44
2023-11-07T07:45:45.518Z,101766.22
2023-11-07T07:48:13.482Z,101764.69
2023-11-07T07:50:43.586Z,101759.59
2023-11-07T07:53:16.691Z,101762.72
2023-11-07T07:55:45.569Z,101754.88
2023-11-07T07:58:19.963Z,101761.63
2023-11-07T08:00:51.377Z,101768.09
2023-11-07T08:03:21.465Z,101769.47
2023-11-07T08:05:49.186Z,101778.13
2023-11-07T08:08:17.707Z,101780.53
2023-11-07T08:10:50.068Z,101781.22
2023-11-07T08:13:18.457Z,101778.53
2023-11-07T08:15:46.418Z,101786.63
2023-11-07T08:18:13.870Z,101786.13
2023-11-07T08:20:41.459Z,101789.91
2023-11-07T08:23:08.777Z,101787.81
2023-11-07T08:25:36.353Z,101780.31
2023-11-07T08:28:10.966Z,101783.97
2023-11-07T08:30:39.541Z,101790.97
2023-11-07T08:33:09.076Z,101792.59
2023-11-07T08:35:38.185Z,101789.31
2023-11-07T08:38:05.470Z,101783.78
2023-11-07T08:40:32.913Z,101776.03
2023-11-07T08:43:01.554Z,101785.53
2023-11-07T08:45:30.073Z,101778.31
2023-11-07T08:47:58.381Z,101789.94
2023-11-07T08:50:28.760Z,101792.13
2023-11-07T08:52:58.789Z,101783.91
2023-11-07T08:55:27.589Z,101792.25
2023-11-07T08:57:55.576Z,101788.97
2023-11-07T09:00:23.638Z,101799.06
2023-11-07T09:02:52.786Z,101789.22
2023-11-07T09:05:20.333Z,101795.94
2023-11-07T09:07:48.247Z,101789.78
2023-11-07T09:10:15.867Z,101790.94
2023-11-07T09:12:43.843Z,101800.44
2023-11-07T09:15:15.096Z,101803.41
2023-11-07T09:17:44.055Z,101794.09
2023-11-07T09:20:16.089Z,101801.50
2023-11-07T09:22:44.768Z,101799.88
2023-11-07T09:25:15.712Z,101783.56
2023-11-07T09:27:43.203Z,101800.91
2023-11-07T09:30:12.982Z,101790.47
2023-11-07T09:32:43.883Z,101792.69
2023-11-07T09:35:12.624Z,101792.78
2023-11-07T09:37:43.459Z,101786.91
2023-11-07T09:40:12.528Z,101781.34
2023-11-07T09:42:46.178Z,101773.03
2023-11-07T09:45:16.631Z,101771.69
2023-11-07T09:47:49.462Z,101774.59
2023-11-07T09:50:21.667Z,101770.44
2023-11-07T09:52:51.155Z,101758.75
2023-11-07T09:55:18.677Z,101765.25
2023-11-07T09:57:51.343Z,101759.69
2023-11-07T10:00:22.497Z,101764.16
2023-11-07T10:02:52.802Z,101768.97
2023-11-07T10:05:26.387Z,101760.47
2023-11-07T10:07:54.848Z,101765.66
2023-11-07T10:10:22.271Z,101774.69
2023-11-07T10:12:52.182Z,101766.88
2023-11-07T10:15:26.322Z,101772.38
2023-11-07T10:18:05.977Z,101761.06
2023-11-07T10:20:36.383Z,101759.09
2023-11-07T10:23:03.944Z,101756.22
2023-11-07T10:25:32.458Z,101753.44
2023-11-07T10:28:04.778Z,101752.00
2023-11-07T10:30:42.858Z,101742.88
2023-11-07T10:33:11.410Z,101739.47
2023-11-07T10:35:56.472Z,101736.53
2023-11-07T10:38:24.429Z,101729.00
2023-11-07T10:40:52.515Z,101723.66
2023-11-07T10:43:39.978Z,101733.38
2023-11-07T10:46:11.674Z,101725.25
2023-11-07T10:48:41.185Z,101724.59
2023-11-07T10:51:11.026Z,101722.84
2023-11-07T10:53:40.068Z,101720.91
2023-11-07T10:56:14.858Z,101712.75
2023-11-07T10:59:07.433Z,101709.91
2023-11-07T11:01:38.269Z,101704.50
2023-11-07T11:04:10.230Z,101691.31
2023-11-07T11:06:38.688Z,101690.72
2023-11-07T11:09:12.772Z,101697.63
2023-11-07T11:11:43.322Z,101693.25
2023-11-07T11:14:11.132Z,101684.25
2023-11-07T11:16:40.563Z,101689.13
2023-11-07T11:19:12.103Z,101687.16
2023-11-07T11:21:45.516Z,101685.63
2023-11-07T11:24:22.883Z,101681.72
2023-11-07T11:27:04.918Z,101664.88
2023-11-07T11:29:33.618Z,101665.72
2023-11-07T11:32:30.610Z,101669.41
2023-11-07T11:35:18.934Z,101674.50
2023-11-07T11:38:15.133Z,101663.72
2023-11-07T11:40:52.177Z,101653.03
2023-11-07T11:43:22.519Z,101648.34
2023-11-07T11:46:00.198Z,101653.16
2023-11-07T11:48:52.739Z,101656.56
2023-11-07T11:51:40.742Z,101647.97
2023-11-07T11:54:12.453Z,101656.03
2023-11-07T11:56:52.065Z,101658.97
2023-11-07T11:59:20.553Z,101664.84
2023-11-07T12:01:48.778Z,101661.22
2023-11-07T12:04:37.204Z,101651.03
2023-11-07T12:07:25.147Z,101654.72
2023-11-07T12:10:01.592Z,101640.69
2023-11-07T12:12:28.873Z,101647.16
2023-11-07T12:14:56.252Z,101639.00
2023-11-07T12:17:25.421Z,101632.56
2023-11-07T12:20:08.691Z,101636.00
2023-11-07T12:22:36.439Z,101640.72
2023-11-07T12:25:13.349Z,101640.34
2023-11-07T12:27:42.692Z,101635.09
2023-11-07T12:30:18.499Z,101638.69
2023-11-07T12:32:46.516Z,101628.94
2023-11-07T12:35:22.468Z,101632.81
2023-11-07T12:37:52.004Z,101631.00
2023-11-07T12:40:19.997Z,101628.00
2023-11-07T12:42:54.573Z,101629.75
2023-11-07T12:45:33.402Z,101621.94
2023-11-07T12:48:05.504Z,101623.16
2023-11-07T12:50:40.828Z,101614.94
2023-11-07T12:53:08.709Z,101610.41
2023-11-07T12:55:38.911Z,101607.09
2023-11-07T12:58:08.650Z,101597.63
2023-11-07T13:00:55.901Z,101598.16
2023-11-07T13:03:25.081Z,101592.16
2023-11-07T13:06:04.353Z,101596.91
2023-11-07T13:08:39.354Z,101598.41
2023-11-07T13:11:13.752Z,101593.66
2023-11-07T13:13:43.293Z,101582.31
2023-11-07T13:16:10.905Z,101585.19
2023-11-07T13:18:39.481Z,101593.31
2023-11-07T13:21:11.294Z,101592.78
2023-11-07T13:23:39.573Z,101586.34
2023-11-07T13:26:10.557Z,101584.75
2023-11-07T13:28:40.094Z,101575.97
2023-11-07T13:31:07.692Z,101579.28
2023-11-07T13:33:36.649Z,101575.09
2023-11-07T13:36:05.338Z,101578.28
2023-11-07T13:38:32.900Z,101580.19
2023-11-07T13:41:00.337Z,101579.66
2023-11-07T13:43:28.459Z,101581.34
2023-11-07T13:45:55.837Z,101590.28
2023-11-07T13:48:26.022Z,101579.75
2023-11-07T13:50:53.663Z,101578.88
2023-11-07T13:53:21.145Z,101583.66
2023-11-07T13:55:48.464Z,101577.88
2023-11-07T13:58:16.007Z,101577.03
2023-11-07T14:00:43.563Z,101572.59
2023-11-07T14:03:11.068Z,101579.28
2023-11-07T14:05:38.498Z,101572.22
2023-11-07T14:08:06.313Z,101577.78
2023-11-07T14:10:33.670Z,101579.38
2023-11-07T14:13:01.630Z,101576.25
2023-11-07T14:15:36.539Z,101579.44
2023-11-07T14:18:16.685Z,101572.22
2023-11-07T14:20:53.123Z,101567.03
2023-11-07T14:23:20.470Z,101563.19
2023-11-07T14:25:48.325Z,101564.97
2023-11-07T14:28:15.625Z,101573.41
2023-11-07T14:30:46.559Z,101568.47
2023-11-07T14:33:17.062Z,101567.56
2023-11-07T14:35:47.163Z,101573.91
2023-11-07T14:38:17.434Z,101565.75
2023-11-07T14:40:48.437Z,101570.38
2023-11-07T14:43:17.656Z,101567.13
2023-11-07T14:45:46.022Z,101568.53
2023-11-07T14:48:15.815Z,101569.94
2023-11-07T14:50:44.732Z,101569.03
2023-11-07T14:53:12.270Z,101578.72
2023-11-07T14:55:40.250Z,101573.78
2023-11-07T14:58:08.433Z,101572.97
2023-11-07T15:00:41.765Z,101562.50
2023-11-07T15:03:11.943Z,101568.66
2023-11-07T15:05:43.211Z,101565.31
2023-11-07T15:08:12.712Z,101560.94
2023-11-07T15:10:40.102Z,101567.63
2023-11-07T15:13:08.062Z,101569.28
2023-11-07T15:15:36.215Z,101564.91
2023-11-07T15:18:05.706Z,101563.53
2023-11-07T15:20:33.980Z,101561.47
2023-11-07T15:23:04.038Z,101557.91
2023-11-07T15:25:34.859Z,101562.16
2023-11-07T15:28:03.361Z,101570.94
2023-11-07T15:30:32.245Z,101560.91
2023-11-07T15:33:02.585Z,101563.56
2023-11-07T15:35:38.030Z,101568.75
2023-11-07T15:38:09.736Z,101569.06
2023-11-07T15:40:37.850Z,101564.97
2023-11-07T15:43:06.513Z,101571.63
2023-11-07T15:45:34.964Z,101566.78
2023-11-07T15:48:09.451Z,101569.09
2023-11-07T15:50:38.607Z,101569.34
2023-11-07T15:53:08.947Z,101573.47
2023-11-07T15:55:38.610Z,101569.00
2023-11-07T15:58:06.334Z,101573.72
2023-11-07T16:03:59.487Z,101563.56
2023-11-07T16:06:28.606Z,101567.03
2023-11-07T16:08:55.989Z,101577.06
2023-11-07T16:11:24.529Z,101583.28
2023-11-07T16:13:51.783Z,101579.03
2023-11-07T16:16:19.063Z,101585.69
2023-11-07T16:18:46.418Z,101587.88
2023-11-07T16:21:14.244Z,101580.72
2023-11-07T16:23:42.756Z,101585.56
2023-11-07T16:26:12.557Z,101586.84
2023-11-07T16:28:41.330Z,101595.94
2023-11-07T16:31:08.584Z,101594.44
2023-11-07T16:33:36.019Z,101593.84
2023-11-07T16:36:03.652Z,101598.38
2023-11-07T16:38:30.952Z,101599.63
2023-11-07T16:40:58.269Z,101600.88
2023-11-07T16:43:25.575Z,101601.13
2023-11-07T16:45:52.991Z,101596.38
2023-11-07T16:48:20.172Z,101606.19
2023-11-07T16:50:49.387Z,101612.06
2023-11-07T16:53:17.118Z,101614.03
2023-11-07T16:55:44.358Z,101616.44
2023-11-07T16:58:13.485Z,101621.84
2023-11-07T17:00:42.098Z,101617.13
2023-11-07T17:03:09.578Z,101630.13
2023-11-07T17:05:37.156Z,101629.81
2023-11-07T17:08:07.839Z,101636.25
2023-11-07T17:10:35.160Z,101632.69
2023-11-07T17:13:02.795Z,101626.34
2023-11-07T17:15:29.983Z,101626.78
2023-11-07T17:17:57.552Z,101627.72
2023-11-07T17:20:27.602Z,101627.72
2023-11-07T17:22:54.962Z,101629.34
2023-11-07T17:25:22.574Z,101625.88
2023-11-07T17:27:50.018Z,101626.91
2023-11-07T17:30:22.149Z,101631.63
2023-11-07T17:32:49.841Z,101631.19
2023-11-07T17:35:17.065Z,101623.72
2023-11-07T17:37:48.691Z,101638.31
2023-11-07T17:40:16.724Z,101634.75
2023-11-07T17:42:45.613Z,101639.50
2023-11-07T17:45:14.739Z,101640.63
2023-11-07T17:47:42.839Z,101638.66
2023-11-07T17:50:10.377Z,101636.59
2023-11-07T17:52:37.983Z,101635.09
2023-11-07T17:55:05.705Z,101633.13
2023-11-07T17:57:33.578Z,101644.66
2023-11-07T18:00:00.993Z,101633.97
2023-11-07T18:02:29.046Z,101641.91
2023-11-07T18:04:56.349Z,101634.66
2023-11-07T18:07:23.783Z,101642.59
2023-11-07T18:09:51.373Z,101646.84
2023-11-07T18:12:21.100Z,101648.91
2023-11-07T18:14:48.513Z,101646.84
2023-11-07T18:17:15.872Z,101649.16
2023-11-07T18:19:43.413Z,101644.88
2023-11-07T18:22:11.495Z,101643.75
2023-11-07T18:24:38.773Z,101648.13
2023-11-07T18:27:06.452Z,101648.91
2023-11-07T18:29:33.709Z,101652.03
2023-11-07T18:32:02.620Z,101646.16
2023-11-07T18:34:30.036Z,101643.38
2023-11-07T18:37:05.191Z,101645.69
2023-11-07T18:39:40.930Z,101646.03
2023-11-07T18:42:09.731Z,101633.81
2023-11-07T18:44:42.103Z,101639.34
2023-11-07T18:47:09.974Z,101646.41
2023-11-07T18:49:37.447Z,101641.19
2023-11-07T18:52:05.113Z,101633.69
2023-11-07T18:54:32.616Z,101631.63
2023-11-07T18:57:00.149Z,101630.38
2023-11-07T18:59:34.588Z,101632.09
2023-11-07T19:02:08.246Z,101629.78
2023-11-07T19:04:39.139Z,101621.03
2023-11-07T19:07:08.594Z,101626.78
2023-11-07T19:09:36.235Z,101616.66
2023-11-07T19:12:04.514Z,101620.66
2023-11-07T19:14:32.085Z,101621.03
2023-11-07T19:17:00.213Z,101621.34
2023-11-07T19:19:28.569Z,101619.75
2023-11-07T19:21:56.829Z,101626.31
2023-11-07T19:24:24.480Z,101629.63
2023-11-07T19:26:53.702Z,101640.56
2023-11-07T19:29:23.932Z,101642.47
2023-11-07T19:31:52.875Z,101638.13
2023-11-07T19:34:21.578Z,101630.50
2023-11-07T19:36:54.517Z,101626.03
2023-11-07T19:39:22.712Z,101616.59
2023-11-07T19:41:52.191Z,101621.44
2023-11-07T19:44:20.974Z,101622.44
2023-11-07T19:46:48.210Z,101623.78
2023-11-07T19:49:15.695Z,101624.91
2023-11-07T19:51:43.246Z,101624.59
2023-11-07T19:54:12.260Z,101633.34
2023-11-07T19:56:40.635Z,101636.13
2023-11-07T19:59:10.772Z,101629.75
2023-11-07T20:01:39.784Z,101618.72
2023-11-07T20:04:07.391Z,101612.41
2023-11-07T20:06:34.904Z,101612.88
2023-11-07T20:09:02.213Z,101619.66
2023-11-07T20:11:30.581Z,101615.84
2023-11-07T20:13:57.768Z,101623.78
2023-11-07T20:16:25.417Z,101620.22
2023-11-07T20:18:53.999Z,101619.41
2023-11-07T20:21:21.489Z,101613.56
2023-11-07T20:23:48.771Z,101603.66
2023-11-07T20:26:18.860Z,101609.31
2023-11-07T20:28:51.158Z,101611.06
2023-11-07T20:31:20.125Z,101616.81
2023-11-07T20:33:49.887Z,101612.22
2023-11-07T20:36:19.930Z,101613.50
2023-11-07T20:38:48.975Z,101608.47
2023-11-07T20:41:21.467Z,101606.16
2023-11-07T20:43:51.373Z,101613.41
2023-11-07T20:46:31.141Z,101615.03
2023-11-07T20:49:06.964Z,101618.25
2023-11-07T20:51:36.556Z,101615.94
2023-11-07T20:54:05.246Z,101610.09
2023-11-07T20:56:34.232Z,101606.16
2023-11-07T20:59:02.002Z,101601.44
2023-11-07T21:01:29.500Z,101601.44
2023-11-07T21:03:57.297Z,101603.06
2023-11-07T21:06:25.326Z,101607.91
2023-11-07T21:08:53.992Z,101624.13
2023-11-07T21:11:24.427Z,101622.97
2023-11-07T21:13:52.899Z,101618.28
2023-11-07T21:16:20.388Z,101634.50
2023-11-07T21:18:49.249Z,101636.94
2023-11-07T21:21:17.475Z,101635.78
2023-11-07T21:23:45.025Z,101633.81
2023-11-07T21:26:13.710Z,101632.91
2023-11-07T21:28:41.986Z,101634.28
2023-11-07T21:31:10.233Z,101630.34
2023-11-07T21:33:40.585Z,101633.09
2023-11-07T21:36:08.867Z,101632.19
2023-11-07T21:38:36.464Z,101638.41
2023-11-07T21:41:03.870Z,101638.59
2023-11-07T21:43:31.269Z,101636.56
2023-11-07T21:45:58.481Z,101638.03
2023-11-07T21:48:26.281Z,101631.22
2023-11-07T21:50:53.906Z,101636.16
2023-11-07T21:53:22.827Z,101640.75
2023-11-07T21:55:50.431Z,101636.72
2023-11-07T21:58:19.232Z,101637.06
2023-11-07T22:00:46.573Z,101638.16
2023-11-07T22:03:14.308Z,101643.25
2023-11-07T22:05:41.791Z,101659.81
2023-11-07T22:08:09.091Z,101653.47
2023-11-07T22:10:36.896Z,101646.31
2023-11-07T22:13:05.011Z,101640.81
2023-11-07T22:15:33.560Z,101641.16
2023-11-07T22:18:01.132Z,101639.88
2023-11-07T22:20:29.303Z,101637.47
2023-11-07T22:22:57.377Z,101641.72
2023-11-07T22:25:24.575Z,101640.56
2023-11-07T22:27:52.382Z,101638.59
2023-11-07T22:30:19.577Z,101647.72
2023-11-07T22:32:47.444Z,101653.22
2023-11-07T22:35:15.776Z,101651.59
2023-11-07T22:37:43.379Z,101656.19
2023-11-07T22:40:11.248Z,101644.66
2023-11-07T22:42:41.745Z,101643.41
2023-11-07T22:45:10.355Z,101623.94
2023-11-07T22:47:38.187Z,101622.69
2023-11-07T22:50:09.145Z,101623.81
2023-11-07T22:52:36.555Z,101620.59
2023-11-07T22:55:04.334Z,101631.97
2023-11-07T22:57:31.748Z,101624.84
2023-11-07T22:59:59.085Z,101618.53
2023-11-07T23:02:27.149Z,101611.41
2023-11-07T23:04:54.549Z,101618.72
2023-11-07T23:07:22.572Z,101614.84
2023-11-07T23:09:50.617Z,101620.47
2023-11-07T23:12:18.200Z,101616.69
2023-11-07T23:14:46.769Z,101616.38
2023-11-07T23:17:14.901Z,101616.00
2023-11-07T23:19:42.861Z,101618.09
2023-11-07T23:22:13.639Z,101620.19
2023-11-07T23:24:44.939Z,101619.03
2023-11-07T23:27:15.693Z,101616.94
2023-11-07T23:29:45.764Z,101612.44
2023-11-07T23:32:13.288Z,101600.69
2023-11-07T23:34:41.595Z,101609.50
2023-11-07T23:37:09.724Z,101608.56
2023-11-07T23:39:36.989Z,101607.50
2023-11-07T23:42:04.432Z,101601.84
2023-11-07T23:44:31.686Z,101600.47
2023-11-07T23:46:59.127Z,101603.41
2023-11-07T23:49:26.330Z,101592.91
2023-11-07T23:51:54.700Z,101597.94
2023-11-07T23:54:24.220Z,101590.03
2023-11-07T23:56:52.041Z,101590.81
2023-11-07T23:59:19.468Z,101593.94
